sensor_id;sensor_type;location;lat;lon;timestamp;P1;durP1;ratioP1;P2;durP2;ratioP2
15102;SDS011;7652;53.584;9.998;2023-04-21T00:00:19;12.50;;;7.43;;
15102;SDS011;7652;53.584;9.998;2023-04-21T00:03:22;11.20;;;7.30;;
15102;SDS011;7652;53.584;9.998;2023-04-21T00:06:27;11.27;;;7.00;;
15102;SDS011;7652;53.584;9.998;2023-04-21T00:09:31;12.37;;;7.40;;
15102;SDS011;7652;53.584;9.998;2023-04-21T00:12:34;10.20;;;7.57;;
15102;SDS011;7652;53.584;9.998;2023-04-21T00:15:37;12.13;;;7.33;;
15102;SDS011;7652;53.584;9.998;2023-04-21T00:18:41;14.23;;;7.87;;
15102;SDS011;7652;53.584;9.998;2023-04-21T00:21:45;11.97;;;7.33;;
15102;SDS011;7652;53.584;9.998;2023-04-21T00:24:48;13.27;;;7.97;;
15102;SDS011;7652;53.584;9.998;2023-04-21T00:27:51;10.17;;;7.50;;
15102;SDS011;7652;53.584;9.998;2023-04-21T00:30:54;13.03;;;7.50;;
15102;SDS011;7652;53.584;9.998;2023-04-21T00:33:57;12.00;;;7.53;;
15102;SDS011;7652;53.584;9.998;2023-04-21T00:37:01;15.10;;;7.00;;
15102;SDS011;7652;53.584;9.998;2023-04-21T00:40:05;13.40;;;7.37;;
15102;SDS011;7652;53.584;9.998;2023-04-21T00:43:09;10.60;;;6.63;;
15102;SDS011;7652;53.584;9.998;2023-04-21T00:46:12;10.23;;;7.03;;
15102;SDS011;7652;53.584;9.998;2023-04-21T00:49:15;15.70;;;7.90;;
15102;SDS011;7652;53.584;9.998;2023-04-21T00:52:20;10.67;;;6.87;;
15102;SDS011;7652;53.584;9.998;2023-04-21T00:55:23;12.43;;;7.07;;
15102;SDS011;7652;53.584;9.998;2023-04-21T00:58:26;9.10;;;7.13;;
15102;SDS011;7652;53.584;9.998;2023-04-21T01:01:30;13.80;;;7.77;;
15102;SDS011;7652;53.584;9.998;2023-04-21T01:04:34;8.70;;;6.60;;
15102;SDS011;7652;53.584;9.998;2023-04-21T01:07:41;11.67;;;7.60;;
15102;SDS011;7652;53.584;9.998;2023-04-21T01:10:44;12.63;;;7.13;;
15102;SDS011;7652;53.584;9.998;2023-04-21T01:13:47;9.50;;;7.30;;
15102;SDS011;7652;53.584;9.998;2023-04-21T01:16:50;15.30;;;7.40;;
15102;SDS011;7652;53.584;9.998;2023-04-21T01:19:53;12.83;;;7.30;;
15102;SDS011;7652;53.584;9.998;2023-04-21T01:22:59;11.37;;;7.10;;
15102;SDS011;7652;53.584;9.998;2023-04-21T01:26:02;12.57;;;6.83;;
15102;SDS011;7652;53.584;9.998;2023-04-21T01:29:06;10.93;;;7.20;;
15102;SDS011;7652;53.584;9.998;2023-04-21T01:32:10;11.97;;;6.40;;
15102;SDS011;7652;53.584;9.998;2023-04-21T01:35:14;12.10;;;7.47;;
15102;SDS011;7652;53.584;9.998;2023-04-21T01:38:19;12.33;;;7.37;;
15102;SDS011;7652;53.584;9.998;2023-04-21T01:41:22;12.63;;;7.57;;
15102;SDS011;7652;53.584;9.998;2023-04-21T01:44:25;9.93;;;6.40;;
15102;SDS011;7652;53.584;9.998;2023-04-21T01:47:28;11.50;;;7.53;;
15102;SDS011;7652;53.584;9.998;2023-04-21T01:50:31;11.30;;;6.97;;
15102;SDS011;7652;53.584;9.998;2023-04-21T01:53:35;14.17;;;7.07;;
15102;SDS011;7652;53.584;9.998;2023-04-21T01:56:38;9.90;;;6.83;;
15102;SDS011;7652;53.584;9.998;2023-04-21T01:59:41;11.57;;;8.07;;
15102;SDS011;7652;53.584;9.998;2023-04-21T02:02:44;11.90;;;7.50;;
15102;SDS011;7652;53.584;9.998;2023-04-21T02:05:49;11.10;;;6.63;;
15102;SDS011;7652;53.584;9.998;2023-04-21T02:08:53;13.30;;;7.37;;
15102;SDS011;7652;53.584;9.998;2023-04-21T02:11:56;8.83;;;6.33;;
15102;SDS011;7652;53.584;9.998;2023-04-21T02:14:59;12.23;;;7.40;;
15102;SDS011;7652;53.584;9.998;2023-04-21T02:18:02;9.87;;;6.67;;
15102;SDS011;7652;53.584;9.998;2023-04-21T02:21:06;11.83;;;7.10;;
15102;SDS011;7652;53.584;9.998;2023-04-21T02:24:11;11.67;;;7.13;;
15102;SDS011;7652;53.584;9.998;2023-04-21T02:27:14;9.37;;;6.77;;
15102;SDS011;7652;53.584;9.998;2023-04-21T02:30:17;10.00;;;6.73;;
15102;SDS011;7652;53.584;9.998;2023-04-21T02:33:20;10.80;;;7.37;;
15102;SDS011;7652;53.584;9.998;2023-04-21T02:36:23;14.07;;;7.33;;
15102;SDS011;7652;53.584;9.998;2023-04-21T02:39:28;16.00;;;7.37;;
15102;SDS011;7652;53.584;9.998;2023-04-21T02:42:31;9.57;;;7.13;;
15102;SDS011;7652;53.584;9.998;2023-04-21T02:45:35;10.73;;;6.90;;
15102;SDS011;7652;53.584;9.998;2023-04-21T02:48:38;9.97;;;6.30;;
15102;SDS011;7652;53.584;9.998;2023-04-21T02:51:41;12.37;;;6.83;;
15102;SDS011;7652;53.584;9.998;2023-04-21T02:54:45;11.83;;;6.03;;
15102;SDS011;7652;53.584;9.998;2023-04-21T02:57:48;7.73;;;6.83;;
15102;SDS011;7652;53.584;9.998;2023-04-21T03:00:51;8.50;;;6.23;;
15102;SDS011;7652;53.584;9.998;2023-04-21T03:03:55;12.53;;;6.87;;
15102;SDS011;7652;53.584;9.998;2023-04-21T03:06:58;10.57;;;6.80;;
15102;SDS011;7652;53.584;9.998;2023-04-21T03:10:02;10.17;;;6.53;;
15102;SDS011;7652;53.584;9.998;2023-04-21T03:13:07;9.63;;;6.57;;
15102;SDS011;7652;53.584;9.998;2023-04-21T03:16:10;7.10;;;5.80;;
15102;SDS011;7652;53.584;9.998;2023-04-21T03:19:13;12.73;;;6.77;;
15102;SDS011;7652;53.584;9.998;2023-04-21T03:22:16;13.07;;;6.90;;
15102;SDS011;7652;53.584;9.998;2023-04-21T03:25:21;13.07;;;6.97;;
15102;SDS011;7652;53.584;9.998;2023-04-21T03:28:24;10.67;;;6.70;;
15102;SDS011;7652;53.584;9.998;2023-04-21T03:31:27;11.40;;;6.73;;
15102;SDS011;7652;53.584;9.998;2023-04-21T03:34:30;10.10;;;6.97;;
15102;SDS011;7652;53.584;9.998;2023-04-21T03:37:33;8.93;;;6.67;;
15102;SDS011;7652;53.584;9.998;2023-04-21T03:40:37;11.30;;;6.30;;
15102;SDS011;7652;53.584;9.998;2023-04-21T03:43:40;9.63;;;6.77;;
15102;SDS011;7652;53.584;9.998;2023-04-21T03:46:43;10.30;;;6.67;;
15102;SDS011;7652;53.584;9.998;2023-04-21T03:49:46;9.17;;;6.10;;
15102;SDS011;7652;53.584;9.998;2023-04-21T03:52:49;9.03;;;6.70;;
15102;SDS011;7652;53.584;9.998;2023-04-21T03:55:53;11.83;;;7.00;;
15102;SDS011;7652;53.584;9.998;2023-04-21T03:58:56;11.63;;;6.53;;
15102;SDS011;7652;53.584;9.998;2023-04-21T04:01:59;11.80;;;6.37;;
15102;SDS011;7652;53.584;9.998;2023-04-21T04:05:03;8.37;;;6.53;;
15102;SDS011;7652;53.584;9.998;2023-04-21T04:08:08;8.40;;;5.77;;
15102;SDS011;7652;53.584;9.998;2023-04-21T04:11:12;11.37;;;6.93;;
15102;SDS011;7652;53.584;9.998;2023-04-21T04:14:15;12.13;;;6.67;;
15102;SDS011;7652;53.584;9.998;2023-04-21T04:17:18;10.47;;;7.03;;
15102;SDS011;7652;53.584;9.998;2023-04-21T04:20:21;10.50;;;6.00;;
15102;SDS011;7652;53.584;9.998;2023-04-21T04:23:24;8.10;;;6.10;;
15102;SDS011;7652;53.584;9.998;2023-04-21T04:26:29;10.27;;;6.87;;
15102;SDS011;7652;53.584;9.998;2023-04-21T04:29:34;12.37;;;7.13;;
15102;SDS011;7652;53.584;9.998;2023-04-21T04:32:37;10.03;;;6.73;;
15102;SDS011;7652;53.584;9.998;2023-04-21T04:35:41;10.80;;;6.27;;
15102;SDS011;7652;53.584;9.998;2023-04-21T04:38:44;11.63;;;7.33;;
15102;SDS011;7652;53.584;9.998;2023-04-21T04:41:50;9.23;;;6.63;;
15102;SDS011;7652;53.584;9.998;2023-04-21T04:44:54;12.03;;;6.87;;
15102;SDS011;7652;53.584;9.998;2023-04-21T04:47:57;9.17;;;6.13;;
15102;SDS011;7652;53.584;9.998;2023-04-21T04:51:01;11.00;;;7.00;;
15102;SDS011;7652;53.584;9.998;2023-04-21T04:54:04;11.37;;;7.77;;
15102;SDS011;7652;53.584;9.998;2023-04-21T04:57:08;12.00;;;6.73;;
15102;SDS011;7652;53.584;9.998;2023-04-21T05:00:12;7.90;;;6.80;;
15102;SDS011;7652;53.584;9.998;2023-04-21T05:03:15;12.33;;;6.60;;
15102;SDS011;7652;53.584;9.998;2023-04-21T05:06:19;11.60;;;7.40;;
15102;SDS011;7652;53.584;9.998;2023-04-21T05:09:22;9.87;;;6.97;;
15102;SDS011;7652;53.584;9.998;2023-04-21T05:12:26;12.40;;;6.87;;
15102;SDS011;7652;53.584;9.998;2023-04-21T05:15:29;8.53;;;6.13;;
15102;SDS011;7652;53.584;9.998;2023-04-21T05:18:32;10.27;;;6.27;;
15102;SDS011;7652;53.584;9.998;2023-04-21T05:21:35;10.50;;;7.13;;
15102;SDS011;7652;53.584;9.998;2023-04-21T05:24:39;12.47;;;6.73;;
15102;SDS011;7652;53.584;9.998;2023-04-21T05:27:44;11.63;;;7.50;;
15102;SDS011;7652;53.584;9.998;2023-04-21T05:30:49;10.90;;;7.03;;
15102;SDS011;7652;53.584;9.998;2023-04-21T05:33:52;10.70;;;6.57;;
15102;SDS011;7652;53.584;9.998;2023-04-21T05:36:55;11.87;;;6.00;;
15102;SDS011;7652;53.584;9.998;2023-04-21T05:39:58;8.60;;;6.20;;
15102;SDS011;7652;53.584;9.998;2023-04-21T05:43:02;8.77;;;6.40;;
15102;SDS011;7652;53.584;9.998;2023-04-21T05:46:07;10.30;;;7.00;;
15102;SDS011;7652;53.584;9.998;2023-04-21T05:49:11;9.33;;;6.90;;
15102;SDS011;7652;53.584;9.998;2023-04-21T05:52:14;8.93;;;6.20;;
15102;SDS011;7652;53.584;9.998;2023-04-21T05:55:18;10.03;;;6.50;;
15102;SDS011;7652;53.584;9.998;2023-04-21T05:58:23;12.77;;;6.70;;
15102;SDS011;7652;53.584;9.998;2023-04-21T06:01:26;10.07;;;6.63;;
15102;SDS011;7652;53.584;9.998;2023-04-21T06:04:29;10.00;;;7.03;;
15102;SDS011;7652;53.584;9.998;2023-04-21T06:07:32;8.47;;;6.00;;
15102;SDS011;7652;53.584;9.998;2023-04-21T06:10:37;8.37;;;5.87;;
15102;SDS011;7652;53.584;9.998;2023-04-21T06:13:41;11.07;;;6.80;;
15102;SDS011;7652;53.584;9.998;2023-04-21T06:16:45;11.73;;;6.47;;
15102;SDS011;7652;53.584;9.998;2023-04-21T06:19:48;7.23;;;6.10;;
15102;SDS011;7652;53.584;9.998;2023-04-21T06:22:53;13.43;;;5.93;;
15102;SDS011;7652;53.584;9.998;2023-04-21T06:25:59;8.53;;;5.90;;
15102;SDS011;7652;53.584;9.998;2023-04-21T06:29:06;7.17;;;5.73;;
15102;SDS011;7652;53.584;9.998;2023-04-21T06:32:09;9.30;;;6.30;;
15102;SDS011;7652;53.584;9.998;2023-04-21T06:35:13;9.33;;;5.77;;
15102;SDS011;7652;53.584;9.998;2023-04-21T06:38:16;9.07;;;6.20;;
15102;SDS011;7652;53.584;9.998;2023-04-21T06:41:19;8.90;;;6.10;;
15102;SDS011;7652;53.584;9.998;2023-04-21T06:44:26;8.93;;;6.17;;
15102;SDS011;7652;53.584;9.998;2023-04-21T06:47:29;8.63;;;5.97;;
15102;SDS011;7652;53.584;9.998;2023-04-21T06:50:32;9.13;;;6.00;;
15102;SDS011;7652;53.584;9.998;2023-04-21T06:53:35;8.17;;;6.07;;
15102;SDS011;7652;53.584;9.998;2023-04-21T06:56:38;6.63;;;5.83;;
15102;SDS011;7652;53.584;9.998;2023-04-21T06:59:44;8.70;;;6.00;;
15102;SDS011;7652;53.584;9.998;2023-04-21T07:02:49;10.17;;;5.77;;
15102;SDS011;7652;53.584;9.998;2023-04-21T07:05:53;8.70;;;5.80;;
15102;SDS011;7652;53.584;9.998;2023-04-21T07:08:56;7.33;;;5.87;;
15102;SDS011;7652;53.584;9.998;2023-04-21T07:11:59;11.83;;;6.30;;
15102;SDS011;7652;53.584;9.998;2023-04-21T07:15:05;6.60;;;5.90;;
15102;SDS011;7652;53.584;9.998;2023-04-21T07:18:09;7.10;;;5.50;;
15102;SDS011;7652;53.584;9.998;2023-04-21T07:21:12;9.00;;;6.33;;
15102;SDS011;7652;53.584;9.998;2023-04-21T07:24:15;7.00;;;5.70;;
15102;SDS011;7652;53.584;9.998;2023-04-21T07:27:18;7.37;;;5.90;;
15102;SDS011;7652;53.584;9.998;2023-04-21T07:30:22;7.73;;;6.20;;
15102;SDS011;7652;53.584;9.998;2023-04-21T07:33:26;7.93;;;5.50;;
15102;SDS011;7652;53.584;9.998;2023-04-21T07:36:28;7.50;;;5.73;;
15102;SDS011;7652;53.584;9.998;2023-04-21T07:39:32;7.17;;;5.27;;
15102;SDS011;7652;53.584;9.998;2023-04-21T07:42:35;7.93;;;5.93;;
15102;SDS011;7652;53.584;9.998;2023-04-21T07:45:39;6.70;;;5.10;;
15102;SDS011;7652;53.584;9.998;2023-04-21T07:48:42;8.70;;;5.60;;
15102;SDS011;7652;53.584;9.998;2023-04-21T07:51:46;8.97;;;5.57;;
15102;SDS011;7652;53.584;9.998;2023-04-21T07:54:49;9.27;;;5.63;;
15102;SDS011;7652;53.584;9.998;2023-04-21T07:57:53;7.43;;;5.30;;
15102;SDS011;7652;53.584;9.998;2023-04-21T08:00:57;9.17;;;5.93;;
15102;SDS011;7652;53.584;9.998;2023-04-21T08:04:00;6.20;;;5.20;;
15102;SDS011;7652;53.584;9.998;2023-04-21T08:07:03;6.73;;;5.50;;
15102;SDS011;7652;53.584;9.998;2023-04-21T08:10:07;6.70;;;5.07;;
15102;SDS011;7652;53.584;9.998;2023-04-21T08:13:11;7.23;;;4.77;;
15102;SDS011;7652;53.584;9.998;2023-04-21T08:16:15;5.87;;;5.27;;
15102;SDS011;7652;53.584;9.998;2023-04-21T08:19:19;8.20;;;4.90;;
15102;SDS011;7652;53.584;9.998;2023-04-21T08:22:22;9.23;;;5.37;;
15102;SDS011;7652;53.584;9.998;2023-04-21T08:25:25;5.53;;;5.00;;
15102;SDS011;7652;53.584;9.998;2023-04-21T08:28:28;9.20;;;5.50;;
15102;SDS011;7652;53.584;9.998;2023-04-21T08:31:32;5.77;;;5.17;;
15102;SDS011;7652;53.584;9.998;2023-04-21T08:34:35;6.87;;;4.67;;
15102;SDS011;7652;53.584;9.998;2023-04-21T08:37:38;5.90;;;5.20;;
15102;SDS011;7652;53.584;9.998;2023-04-21T08:40:42;9.53;;;5.50;;
15102;SDS011;7652;53.584;9.998;2023-04-21T08:43:45;6.87;;;5.43;;
15102;SDS011;7652;53.584;9.998;2023-04-21T08:46:49;6.53;;;5.30;;
15102;SDS011;7652;53.584;9.998;2023-04-21T08:49:53;8.77;;;6.20;;
15102;SDS011;7652;53.584;9.998;2023-04-21T08:52:58;5.47;;;4.97;;
15102;SDS011;7652;53.584;9.998;2023-04-21T08:56:01;6.13;;;5.00;;
15102;SDS011;7652;53.584;9.998;2023-04-21T08:59:12;6.73;;;5.57;;
15102;SDS011;7652;53.584;9.998;2023-04-21T09:02:17;6.43;;;5.77;;
15102;SDS011;7652;53.584;9.998;2023-04-21T09:05:21;6.17;;;5.57;;
15102;SDS011;7652;53.584;9.998;2023-04-21T09:08:26;7.37;;;5.87;;
15102;SDS011;7652;53.584;9.998;2023-04-21T09:11:31;8.90;;;5.97;;
15102;SDS011;7652;53.584;9.998;2023-04-21T09:14:34;7.53;;;5.50;;
15102;SDS011;7652;53.584;9.998;2023-04-21T09:17:39;6.20;;;5.40;;
15102;SDS011;7652;53.584;9.998;2023-04-21T09:20:42;7.23;;;5.60;;
15102;SDS011;7652;53.584;9.998;2023-04-21T09:23:47;6.27;;;5.67;;
15102;SDS011;7652;53.584;9.998;2023-04-21T09:26:51;6.00;;;5.50;;
15102;SDS011;7652;53.584;9.998;2023-04-21T09:29:55;7.90;;;6.03;;
15102;SDS011;7652;53.584;9.998;2023-04-21T09:33:05;8.73;;;5.83;;
15102;SDS011;7652;53.584;9.998;2023-04-21T09:36:28;6.63;;;5.40;;
15102;SDS011;7652;53.584;9.998;2023-04-21T09:39:32;9.13;;;5.40;;
15102;SDS011;7652;53.584;9.998;2023-04-21T09:42:55;6.67;;;5.97;;
15102;SDS011;7652;53.584;9.998;2023-04-21T09:45:58;6.77;;;5.47;;
15102;SDS011;7652;53.584;9.998;2023-04-21T09:49:05;6.80;;;5.83;;
15102;SDS011;7652;53.584;9.998;2023-04-21T09:52:11;7.13;;;5.93;;
15102;SDS011;7652;53.584;9.998;2023-04-21T09:55:21;7.13;;;5.97;;
15102;SDS011;7652;53.584;9.998;2023-04-21T09:58:27;6.90;;;5.43;;
15102;SDS011;7652;53.584;9.998;2023-04-21T10:01:34;7.53;;;5.50;;
15102;SDS011;7652;53.584;9.998;2023-04-21T10:04:40;7.30;;;5.33;;
15102;SDS011;7652;53.584;9.998;2023-04-21T10:07:47;5.83;;;5.13;;
15102;SDS011;7652;53.584;9.998;2023-04-21T10:10:50;7.87;;;5.43;;
15102;SDS011;7652;53.584;9.998;2023-04-21T10:13:54;6.13;;;5.13;;
15102;SDS011;7652;53.584;9.998;2023-04-21T10:17:02;20.63;;;10.20;;
15102;SDS011;7652;53.584;9.998;2023-04-21T10:20:08;5.73;;;5.13;;
15102;SDS011;7652;53.584;9.998;2023-04-21T10:23:24;6.43;;;4.93;;
15102;SDS011;7652;53.584;9.998;2023-04-21T10:26:36;6.67;;;5.47;;
15102;SDS011;7652;53.584;9.998;2023-04-21T10:29:39;5.63;;;5.00;;
15102;SDS011;7652;53.584;9.998;2023-04-21T10:33:00;5.57;;;4.57;;
15102;SDS011;7652;53.584;9.998;2023-04-21T10:36:06;6.50;;;5.40;;
15102;SDS011;7652;53.584;9.998;2023-04-21T10:39:24;8.23;;;5.33;;
15102;SDS011;7652;53.584;9.998;2023-04-21T10:42:29;9.97;;;5.67;;
15102;SDS011;7652;53.584;9.998;2023-04-21T10:45:37;5.17;;;4.67;;
15102;SDS011;7652;53.584;9.998;2023-04-21T10:48:40;6.20;;;5.57;;
15102;SDS011;7652;53.584;9.998;2023-04-21T10:52:04;6.20;;;4.93;;
15102;SDS011;7652;53.584;9.998;2023-04-21T10:55:09;5.77;;;4.90;;
15102;SDS011;7652;53.584;9.998;2023-04-21T10:58:14;5.90;;;5.30;;
15102;SDS011;7652;53.584;9.998;2023-04-21T11:01:17;5.83;;;4.93;;
15102;SDS011;7652;53.584;9.998;2023-04-21T11:04:20;7.25;;;5.10;;
15102;SDS011;7652;53.584;9.998;2023-04-21T11:07:26;7.70;;;5.25;;
15102;SDS011;7652;53.584;9.998;2023-04-21T11:10:39;5.85;;;5.00;;
15102;SDS011;7652;53.584;9.998;2023-04-21T11:13:54;5.45;;;4.93;;
15102;SDS011;7652;53.584;9.998;2023-04-21T11:17:01;5.72;;;5.22;;
15102;SDS011;7652;53.584;9.998;2023-04-21T11:20:05;7.23;;;4.97;;
15102;SDS011;7652;53.584;9.998;2023-04-21T11:23:10;6.50;;;4.67;;
15102;SDS011;7652;53.584;9.998;2023-04-21T11:26:28;6.17;;;4.83;;
15102;SDS011;7652;53.584;9.998;2023-04-21T11:29:32;4.88;;;4.43;;
15102;SDS011;7652;53.584;9.998;2023-04-21T11:32:35;5.50;;;4.93;;
15102;SDS011;7652;53.584;9.998;2023-04-21T11:35:39;5.20;;;4.70;;
15102;SDS011;7652;53.584;9.998;2023-04-21T11:38:44;8.15;;;4.78;;
15102;SDS011;7652;53.584;9.998;2023-04-21T11:41:47;6.00;;;4.88;;
15102;SDS011;7652;53.584;9.998;2023-04-21T11:44:52;5.43;;;4.60;;
15102;SDS011;7652;53.584;9.998;2023-04-21T11:48:11;6.28;;;4.60;;
15102;SDS011;7652;53.584;9.998;2023-04-21T11:51:15;5.57;;;5.07;;
15102;SDS011;7652;53.584;9.998;2023-04-21T11:54:23;5.00;;;4.50;;
15102;SDS011;7652;53.584;9.998;2023-04-21T11:57:27;5.40;;;4.88;;
15102;SDS011;7652;53.584;9.998;2023-04-21T12:00:31;6.63;;;5.00;;
15102;SDS011;7652;53.584;9.998;2023-04-21T12:03:34;5.22;;;4.72;;
15102;SDS011;7652;53.584;9.998;2023-04-21T12:06:37;7.53;;;4.97;;
15102;SDS011;7652;53.584;9.998;2023-04-21T12:09:42;4.78;;;4.38;;
15102;SDS011;7652;53.584;9.998;2023-04-21T12:12:45;6.05;;;5.18;;
15102;SDS011;7652;53.584;9.998;2023-04-21T12:15:48;5.43;;;4.70;;
15102;SDS011;7652;53.584;9.998;2023-04-21T12:18:51;5.22;;;4.72;;
15102;SDS011;7652;53.584;9.998;2023-04-21T12:21:54;5.18;;;4.68;;
15102;SDS011;7652;53.584;9.998;2023-04-21T12:24:59;6.47;;;4.40;;
15102;SDS011;7652;53.584;9.998;2023-04-21T12:28:02;5.78;;;4.30;;
15102;SDS011;7652;53.584;9.998;2023-04-21T12:31:05;5.97;;;4.97;;
15102;SDS011;7652;53.584;9.998;2023-04-21T12:34:08;4.97;;;4.28;;
15102;SDS011;7652;53.584;9.998;2023-04-21T12:37:11;5.43;;;4.93;;
15102;SDS011;7652;53.584;9.998;2023-04-21T12:40:15;5.07;;;4.57;;
15102;SDS011;7652;53.584;9.998;2023-04-21T12:43:19;6.50;;;4.68;;
15102;SDS011;7652;53.584;9.998;2023-04-21T12:46:22;5.53;;;4.75;;
15102;SDS011;7652;53.584;9.998;2023-04-21T12:49:25;5.60;;;5.07;;
15102;SDS011;7652;53.584;9.998;2023-04-21T12:52:28;4.88;;;4.22;;
15102;SDS011;7652;53.584;9.998;2023-04-21T12:55:34;5.53;;;4.95;;
15102;SDS011;7652;53.584;9.998;2023-04-21T12:58:37;5.10;;;4.60;;
15102;SDS011;7652;53.584;9.998;2023-04-21T13:01:41;5.20;;;4.80;;
15102;SDS011;7652;53.584;9.998;2023-04-21T13:04:44;7.80;;;5.07;;
15102;SDS011;7652;53.584;9.998;2023-04-21T13:07:47;7.73;;;5.17;;
15102;SDS011;7652;53.584;9.998;2023-04-21T13:10:51;4.93;;;4.53;;
15102;SDS011;7652;53.584;9.998;2023-04-21T13:13:56;5.07;;;4.50;;
15102;SDS011;7652;53.584;9.998;2023-04-21T13:16:59;7.00;;;4.47;;
15102;SDS011;7652;53.584;9.998;2023-04-21T13:20:02;5.43;;;4.93;;
15102;SDS011;7652;53.584;9.998;2023-04-21T13:23:07;6.00;;;4.17;;
15102;SDS011;7652;53.584;9.998;2023-04-21T13:26:13;8.57;;;4.60;;
15102;SDS011;7652;53.584;9.998;2023-04-21T13:29:16;6.00;;;4.47;;
15102;SDS011;7652;53.584;9.998;2023-04-21T13:32:19;5.37;;;4.87;;
15102;SDS011;7652;53.584;9.998;2023-04-21T13:35:22;5.47;;;4.87;;
15102;SDS011;7652;53.584;9.998;2023-04-21T13:38:26;6.07;;;4.53;;
15102;SDS011;7652;53.584;9.998;2023-04-21T13:41:30;5.87;;;4.70;;
15102;SDS011;7652;53.584;9.998;2023-04-21T13:44:33;6.50;;;4.50;;
15102;SDS011;7652;53.584;9.998;2023-04-21T13:47:36;6.90;;;4.83;;
15102;SDS011;7652;53.584;9.998;2023-04-21T13:50:39;6.50;;;4.73;;
15102;SDS011;7652;53.584;9.998;2023-04-21T13:53:42;5.20;;;4.70;;
15102;SDS011;7652;53.584;9.998;2023-04-21T13:56:47;5.13;;;4.67;;
15102;SDS011;7652;53.584;9.998;2023-04-21T13:59:51;5.67;;;5.17;;
15102;SDS011;7652;53.584;9.998;2023-04-21T14:02:55;4.90;;;4.50;;
15102;SDS011;7652;53.584;9.998;2023-04-21T14:05:58;5.23;;;4.73;;
15102;SDS011;7652;53.584;9.998;2023-04-21T14:09:01;5.17;;;4.67;;
15102;SDS011;7652;53.584;9.998;2023-04-21T14:12:08;5.73;;;4.77;;
15102;SDS011;7652;53.584;9.998;2023-04-21T14:15:11;8.23;;;4.87;;
15102;SDS011;7652;53.584;9.998;2023-04-21T14:18:15;6.53;;;4.80;;
15102;SDS011;7652;53.584;9.998;2023-04-21T14:21:18;4.87;;;4.30;;
15102;SDS011;7652;53.584;9.998;2023-04-21T14:24:21;7.23;;;4.60;;
15102;SDS011;7652;53.584;9.998;2023-04-21T14:27:25;6.00;;;4.53;;
15102;SDS011;7652;53.584;9.998;2023-04-21T14:30:28;5.37;;;4.30;;
15102;SDS011;7652;53.584;9.998;2023-04-21T14:33:31;5.30;;;4.60;;
15102;SDS011;7652;53.584;9.998;2023-04-21T14:36:35;6.13;;;4.50;;
15102;SDS011;7652;53.584;9.998;2023-04-21T14:39:38;5.00;;;4.50;;
15102;SDS011;7652;53.584;9.998;2023-04-21T14:42:43;5.67;;;4.20;;
15102;SDS011;7652;53.584;9.998;2023-04-21T14:45:46;5.80;;;4.40;;
15102;SDS011;7652;53.584;9.998;2023-04-21T14:48:49;6.47;;;4.73;;
15102;SDS011;7652;53.584;9.998;2023-04-21T14:51:52;8.43;;;4.70;;
15102;SDS011;7652;53.584;9.998;2023-04-21T14:54:55;6.20;;;4.40;;
15102;SDS011;7652;53.584;9.998;2023-04-21T14:58:01;4.90;;;4.40;;
15102;SDS011;7652;53.584;9.998;2023-04-21T15:01:04;4.53;;;4.10;;
15102;SDS011;7652;53.584;9.998;2023-04-21T15:04:07;5.13;;;4.63;;
15102;SDS011;7652;53.584;9.998;2023-04-21T15:07:11;4.90;;;4.37;;
15102;SDS011;7652;53.584;9.998;2023-04-21T15:10:14;4.77;;;4.37;;
15102;SDS011;7652;53.584;9.998;2023-04-21T15:13:19;5.23;;;4.73;;
15102;SDS011;7652;53.584;9.998;2023-04-21T15:16:22;5.53;;;4.50;;
15102;SDS011;7652;53.584;9.998;2023-04-21T15:19:26;5.27;;;4.77;;
15102;SDS011;7652;53.584;9.998;2023-04-21T15:22:29;6.33;;;4.77;;
15102;SDS011;7652;53.584;9.998;2023-04-21T15:25:33;6.07;;;4.80;;
15102;SDS011;7652;53.584;9.998;2023-04-21T15:28:38;5.87;;;4.90;;
15102;SDS011;7652;53.584;9.998;2023-04-21T15:31:41;5.80;;;4.60;;
15102;SDS011;7652;53.584;9.998;2023-04-21T15:34:44;4.90;;;3.97;;
15102;SDS011;7652;53.584;9.998;2023-04-21T15:37:47;5.50;;;5.00;;
15102;SDS011;7652;53.584;9.998;2023-04-21T15:40:50;4.73;;;4.37;;
15102;SDS011;7652;53.584;9.998;2023-04-21T15:44:03;5.27;;;4.77;;
15102;SDS011;7652;53.584;9.998;2023-04-21T15:47:06;5.30;;;4.40;;
15102;SDS011;7652;53.584;9.998;2023-04-21T15:50:09;5.07;;;4.57;;
15102;SDS011;7652;53.584;9.998;2023-04-21T15:53:13;6.20;;;5.03;;
15102;SDS011;7652;53.584;9.998;2023-04-21T15:56:18;4.57;;;4.17;;
15102;SDS011;7652;53.584;9.998;2023-04-21T15:59:23;4.90;;;4.50;;
15102;SDS011;7652;53.584;9.998;2023-04-21T16:02:26;7.33;;;4.90;;
15102;SDS011;7652;53.584;9.998;2023-04-21T16:05:30;5.73;;;4.80;;
15102;SDS011;7652;53.584;9.998;2023-04-21T16:08:33;6.47;;;4.37;;
15102;SDS011;7652;53.584;9.998;2023-04-21T16:11:37;5.00;;;4.53;;
15102;SDS011;7652;53.584;9.998;2023-04-21T16:14:41;4.87;;;4.37;;
15102;SDS011;7652;53.584;9.998;2023-04-21T16:18:01;5.37;;;4.13;;
15102;SDS011;7652;53.584;9.998;2023-04-21T16:21:07;5.60;;;5.03;;
15102;SDS011;7652;53.584;9.998;2023-04-21T16:24:10;5.30;;;4.63;;
15102;SDS011;7652;53.584;9.998;2023-04-21T16:27:14;5.43;;;4.60;;
15102;SDS011;7652;53.584;9.998;2023-04-21T16:30:18;4.93;;;4.27;;
15102;SDS011;7652;53.584;9.998;2023-04-21T16:33:21;7.73;;;4.80;;
15102;SDS011;7652;53.584;9.998;2023-04-21T16:36:25;5.20;;;4.33;;
15102;SDS011;7652;53.584;9.998;2023-04-21T16:39:29;5.10;;;4.33;;
15102;SDS011;7652;53.584;9.998;2023-04-21T16:42:32;5.87;;;4.83;;
15102;SDS011;7652;53.584;9.998;2023-04-21T16:45:37;5.17;;;4.60;;
15102;SDS011;7652;53.584;9.998;2023-04-21T16:48:40;4.90;;;4.40;;
15102;SDS011;7652;53.584;9.998;2023-04-21T16:51:43;6.60;;;4.40;;
15102;SDS011;7652;53.584;9.998;2023-04-21T16:54:46;7.90;;;4.53;;
15102;SDS011;7652;53.584;9.998;2023-04-21T16:57:49;5.43;;;4.30;;
15102;SDS011;7652;53.584;9.998;2023-04-21T17:00:53;5.20;;;4.37;;
15102;SDS011;7652;53.584;9.998;2023-04-21T17:03:56;6.40;;;4.23;;
15102;SDS011;7652;53.584;9.998;2023-04-21T17:06:59;6.27;;;4.20;;
15102;SDS011;7652;53.584;9.998;2023-04-21T17:10:02;5.63;;;4.97;;
15102;SDS011;7652;53.584;9.998;2023-04-21T17:13:06;5.13;;;4.63;;
15102;SDS011;7652;53.584;9.998;2023-04-21T17:16:10;6.70;;;4.63;;
15102;SDS011;7652;53.584;9.998;2023-04-21T17:19:13;5.47;;;4.50;;
15102;SDS011;7652;53.584;9.998;2023-04-21T17:22:16;5.30;;;4.47;;
15102;SDS011;7652;53.584;9.998;2023-04-21T17:25:19;4.90;;;4.40;;
15102;SDS011;7652;53.584;9.998;2023-04-21T17:28:22;5.80;;;4.60;;
15102;SDS011;7652;53.584;9.998;2023-04-21T17:31:27;5.73;;;4.50;;
15102;SDS011;7652;53.584;9.998;2023-04-21T17:34:30;4.67;;;4.27;;
15102;SDS011;7652;53.584;9.998;2023-04-21T17:37:33;5.50;;;4.37;;
15102;SDS011;7652;53.584;9.998;2023-04-21T17:40:36;6.30;;;4.73;;
15102;SDS011;7652;53.584;9.998;2023-04-21T17:43:39;7.03;;;5.33;;
15102;SDS011;7652;53.584;9.998;2023-04-21T17:46:44;11.90;;;6.23;;
15102;SDS011;7652;53.584;9.998;2023-04-21T17:49:47;13.07;;;7.67;;
15102;SDS011;7652;53.584;9.998;2023-04-21T17:52:50;10.33;;;5.83;;
15102;SDS011;7652;53.584;9.998;2023-04-21T17:55:53;7.40;;;4.93;;
15102;SDS011;7652;53.584;9.998;2023-04-21T17:58:56;5.93;;;4.70;;
15102;SDS011;7652;53.584;9.998;2023-04-21T18:02:01;6.63;;;4.60;;
15102;SDS011;7652;53.584;9.998;2023-04-21T18:05:05;6.30;;;4.50;;
15102;SDS011;7652;53.584;9.998;2023-04-21T18:08:09;5.70;;;3.97;;
15102;SDS011;7652;53.584;9.998;2023-04-21T18:11:12;7.50;;;4.40;;
15102;SDS011;7652;53.584;9.998;2023-04-21T18:14:15;5.10;;;4.13;;
15102;SDS011;7652;53.584;9.998;2023-04-21T18:17:19;5.80;;;4.77;;
15102;SDS011;7652;53.584;9.998;2023-04-21T18:20:23;6.63;;;4.47;;
15102;SDS011;7652;53.584;9.998;2023-04-21T18:23:26;9.80;;;7.13;;
15102;SDS011;7652;53.584;9.998;2023-04-21T18:26:29;14.17;;;8.27;;
15102;SDS011;7652;53.584;9.998;2023-04-21T18:29:32;7.07;;;4.63;;
15102;SDS011;7652;53.584;9.998;2023-04-21T18:32:37;8.07;;;4.50;;
15102;SDS011;7652;53.584;9.998;2023-04-21T18:35:41;8.07;;;5.07;;
15102;SDS011;7652;53.584;9.998;2023-04-21T18:38:45;6.37;;;4.63;;
15102;SDS011;7652;53.584;9.998;2023-04-21T18:41:48;6.10;;;4.47;;